Time;durP1;ratioP1;P1;durP2;ratioP2;P2;SDS_P1;SDS_P2;PMS_P1;PMS_P2;Temp;Humidity;BMP_temperature;BMP_pressure;BME280_temperature;BME280_humidity;BME280_pressure;Samples;Min_cycle;Max_cycle;Signal;HPM_P1;HPM_P2
2022/04/25 00:01:30;;;;;;;5.90;5.30;;;;;;;6.33;84.23;101252.16;4954124;28;20559;-45
2022/04/25 00:03:58;;;;;;;5.47;5.10;;;;;;;6.33;83.95;101235.47;4954612;28;20431;-49
2022/04/25 00:06:26;;;;;;;6.07;5.67;;;;;;;6.37;84.50;101239.44;4954786;28;20455;-46
2022/04/25 00:08:53;;;;;;;6.67;5.87;;;;;;;6.34;85.17;101234.47;4954662;28;20442;-47
2022/04/25 00:11:22;;;;;;;5.97;5.60;;;;;;;6.31;84.78;101242.72;4953800;28;20475;-49
2022/04/25 00:13:50;;;;;;;8.07;7.30;;;;;;;6.27;84.73;101241.41;4954570;28;20447;-42
2022/04/25 00:16:18;;;;;;;6.70;6.40;;;;;;;6.30;84.76;101235.78;4984693;23;20508;-49
2022/04/25 00:18:47;;;;;;;7.80;7.20;;;;;;;6.27;85.05;101242.22;4993067;28;20469;-49
2022/04/25 00:21:15;;;;;;;7.77;7.27;;;;;;;6.28;85.65;101237.75;4992705;28;20464;-51
2022/04/25 00:23:43;;;;;;;6.00;5.50;;;;;;;6.26;85.75;101245.84;4993059;28;20437;-51
2022/04/25 00:26:10;;;;;;;7.10;6.70;;;;;;;6.24;85.59;101247.00;4992915;28;20549;-48
2022/04/25 00:28:39;;;;;;;6.03;5.73;;;;;;;6.21;86.00;101242.84;4993304;28;20434;-46
2022/04/25 00:31:07;;;;;;;7.40;6.10;;;;;;;6.22;85.85;101244.50;4992700;28;20461;-52
2022/04/25 00:33:35;;;;;;;6.60;6.00;;;;;;;6.22;87.24;101249.78;4993075;28;20902;-50
2022/04/25 00:36:03;;;;;;;6.00;5.60;;;;;;;6.20;86.91;101245.63;4993156;28;20462;-49
2022/04/25 00:38:30;;;;;;;7.57;6.13;;;;;;;6.20;87.22;101249.13;4992732;28;20473;-49
2022/04/25 00:40:58;;;;;;;6.53;6.23;;;;;;;6.21;87.40;101242.03;4992502;28;20463;-50
2022/04/25 00:43:26;;;;;;;7.13;6.60;;;;;;;6.22;87.50;101243.66;4993158;28;20430;-48
2022/04/25 00:45:55;;;;;;;8.37;6.90;;;;;;;6.21;88.54;101237.56;4992744;28;20464;-49
2022/04/25 00:48:23;;;;;;;5.93;5.63;;;;;;;6.17;88.28;101236.19;4992896;28;20427;-51
2022/04/25 00:50:50;;;;;;;7.40;6.80;;;;;;;6.19;88.93;101243.97;4992061;28;20430;-51
2022/04/25 00:53:18;;;;;;;7.50;6.90;;;;;;;6.17;88.40;101246.78;4992531;28;20434;-49
2022/04/25 00:55:46;;;;;;;7.67;7.07;;;;;;;6.17;88.47;101235.34;4991944;28;20967;-47
2022/04/25 00:58:13;;;;;;;7.93;7.43;;;;;;;6.19;88.49;101243.97;4992678;28;20488;-49
2022/04/25 01:00:41;;;;;;;8.67;7.83;;;;;;;6.12;88.35;101241.94;4991983;28;20434;-48
2022/04/25 01:03:10;;;;;;;8.00;7.60;;;;;;;6.13;88.28;101248.91;4992647;28;20434;-51
2022/04/25 01:05:38;;;;;;;8.47;7.77;;;;;;;6.10;88.97;101235.16;4992409;28;20456;-48
2022/04/25 01:08:08;;;;;;;8.67;7.77;;;;;;;6.10;88.47;101238.63;4992779;28;20433;-49
2022/04/25 01:10:36;;;;;;;7.60;7.20;;;;;;;6.12;88.36;101246.44;4991842;28;21122;-51
2022/04/25 01:13:03;;;;;;;8.43;7.40;;;;;;;6.12;88.58;101243.78;4992567;28;20429;-49
2022/04/25 01:15:31;;;;;;;6.30;5.90;;;;;;;6.13;88.48;101245.44;4994814;28;20513;-49
2022/04/25 01:17:59;;;;;;;6.27;5.83;;;;;;;6.11;88.12;101250.91;4996684;28;20444;-48
2022/04/25 01:20:27;;;;;;;6.40;5.90;;;;;;;6.08;86.82;101245.91;4996441;28;20430;-50
2022/04/25 01:27:15;;;;;;;7.47;6.77;;;;;;;6.08;86.77;101247.72;4996009;28;20468;-49
2022/04/25 01:28:36;;;;;;;6.60;6.20;;;;;;;6.07;86.97;101244.22;4996124;28;20433;-46
2022/04/25 01:31:04;;;;;;;6.10;5.67;;;;;;;6.04;86.30;101244.53;4995845;28;20540;-47
2022/04/25 01:33:31;;;;;;;10.73;6.73;;;;;;;6.04;86.49;101247.19;4996381;28;20430;-45
2022/04/25 01:35:59;;;;;;;5.97;5.20;;;;;;;6.04;85.41;101252.50;4996215;28;20460;-48
2022/04/25 01:38:26;;;;;;;5.37;5.07;;;;;;;6.02;84.52;101253.63;4996254;28;20483;-50
2022/04/25 01:40:56;;;;;;;5.77;5.40;;;;;;;5.99;83.94;101244.19;4995464;28;20429;-46
2022/04/25 01:43:23;;;;;;;5.80;5.40;;;;;;;6.01;83.81;101246.66;4995976;28;20429;-49
2022/04/25 01:45:51;;;;;;;6.37;5.87;;;;;;;6.00;85.03;101243.19;4996016;28;20446;-52
2022/04/25 01:48:19;;;;;;;7.00;6.60;;;;;;;5.99;85.41;101257.44;4988301;28;20516;-48
2022/04/25 01:50:49;;;;;;;6.97;6.47;;;;;;;6.01;85.67;101238.72;4995347;28;20430;-48
2022/04/25 01:53:17;;;;;;;6.20;5.67;;;;;;;5.98;86.48;101246.97;4996175;28;20434;-46
2022/04/25 01:55:44;;;;;;;6.70;6.30;;;;;;;5.96;86.27;101235.72;4995880;28;20455;-50
2022/04/25 01:58:13;;;;;;;6.43;5.93;;;;;;;5.96;87.61;101243.66;4995904;28;20522;-48
2022/04/25 02:00:41;;;;;;;6.57;6.07;;;;;;;5.96;87.84;101247.13;4995245;28;20437;-49
2022/04/25 02:03:11;;;;;;;6.63;5.90;;;;;;;5.96;87.99;101248.97;4995821;28;20524;-51
2022/04/25 02:05:39;;;;;;;6.53;6.13;;;;;;;5.95;87.13;101248.13;4995648;28;20804;-52
2022/04/25 02:08:07;;;;;;;6.23;5.70;;;;;;;5.94;86.79;101251.75;4995699;28;20438;-51
2022/04/25 02:10:35;;;;;;;5.90;5.40;;;;;;;5.94;86.32;101243.81;4995207;28;20452;-45
2022/04/25 02:13:02;;;;;;;7.13;6.53;;;;;;;5.94;86.43;101248.28;4995824;28;20434;-46
2022/04/25 02:15:31;;;;;;;6.60;6.30;;;;;;;5.92;85.85;101247.59;4995424;28;20433;-46
2022/04/25 02:17:59;;;;;;;6.27;5.60;;;;;;;5.91;85.97;101241.47;4995527;28;20441;-48
2022/04/25 02:20:26;;;;;;;5.43;5.10;;;;;;;5.91;86.28;101245.94;4995093;28;20484;-51
2022/04/25 02:22:54;;;;;;;11.50;6.27;;;;;;;5.86;86.69;101243.75;4995068;28;20457;-48
2022/04/25 02:25:21;;;;;;;7.73;7.13;;;;;;;5.86;86.52;101245.56;4995382;28;20434;-46
2022/04/25 02:27:49;;;;;;;7.10;6.50;;;;;;;5.85;87.44;101249.19;4995595;28;20438;-47
2022/04/25 02:30:16;;;;;;;6.07;5.67;;;;;;;5.82;87.66;101250.31;4995309;28;20517;-46
2022/04/25 02:32:45;;;;;;;6.50;6.00;;;;;;;5.80;87.63;101248.78;4994770;28;20462;-47
2022/04/25 02:35:13;;;;;;;5.70;5.30;;;;;;;5.79;88.10;101249.78;4995049;28;20434;-47
2022/04/25 02:37:41;;;;;;;6.87;6.23;;;;;;;5.77;88.47;101243.78;4995276;28;20434;-50
2022/04/25 02:40:09;;;;;;;5.87;5.10;;;;;;;5.75;88.49;101251.91;4995030;28;20474;-48
2022/04/25 02:42:38;;;;;;;6.53;6.03;;;;;;;5.74;87.78;101250.22;4994619;28;20462;-49
2022/04/25 02:45:07;;;;;;;6.23;5.73;;;;;;;5.71;88.24;101250.53;4994963;28;20533;-49
2022/04/25 02:47:34;;;;;;;7.80;5.50;;;;;;;5.69;87.97;101251.69;4994712;28;20454;-47
2022/04/25 02:50:03;;;;;;;5.20;4.90;;;;;;;5.66;87.93;101247.53;4994701;28;20430;-50
2022/04/25 02:52:31;;;;;;;7.43;6.13;;;;;;;5.64;88.01;101248.66;4994231;28;20484;-46
2022/04/25 02:54:59;;;;;;;11.10;5.20;;;;;;;5.60;87.93;101253.44;4994927;28;20777;-52
2022/04/25 02:57:27;;;;;;;5.90;5.50;;;;;;;5.58;87.47;101256.22;4994875;28;20458;-48
2022/04/25 02:59:54;;;;;;;6.57;6.00;;;;;;;5.54;87.68;101252.22;4994532;28;20470;-51
2022/04/25 03:02:22;;;;;;;9.23;6.03;;;;;;;5.52;87.70;101254.19;4993898;28;20462;-51
2022/04/25 03:04:50;;;;;;;5.67;5.37;;;;;;;5.53;88.04;101255.00;4994669;28;20469;-50
2022/04/25 03:07:19;;;;;;;7.40;5.83;;;;;;;5.53;87.88;101268.22;4994630;28;20445;-49
2022/04/25 03:09:46;;;;;;;5.40;4.97;;;;;;;5.49;87.56;101254.50;4994590;28;20422;-48
2022/04/25 03:12:15;;;;;;;7.23;5.50;;;;;;;5.47;87.60;101259.09;4993874;28;20473;-50
2022/04/25 03:14:43;;;;;;;6.10;5.80;;;;;;;5.43;87.46;101256.91;4994368;28;20430;-48
2022/04/25 03:17:11;;;;;;;6.80;6.20;;;;;;;5.41;87.92;101267.63;4994211;28;20469;-51
2022/04/25 03:19:39;;;;;;;7.90;6.60;;;;;;;5.38;87.57;101262.63;4993910;28;20469;-46
2022/04/25 03:22:07;;;;;;;6.77;6.43;;;;;;;5.38;87.69;101264.44;4991727;28;20464;-48
2022/04/25 03:24:39;;;;;;;13.67;7.17;;;;;;;5.37;87.74;101268.94;4993979;28;20470;-51
2022/04/25 03:27:07;;;;;;;7.03;6.00;;;;;;;5.37;87.98;101262.81;4994077;28;20805;-46
2022/04/25 03:29:35;;;;;;;6.03;5.63;;;;;;;5.36;87.50;101266.41;4994053;28;20426;-50
2022/04/25 03:32:04;;;;;;;5.70;5.40;;;;;;;5.37;87.64;101266.28;4993493;28;21017;-47
2022/04/25 03:34:31;;;;;;;5.87;5.40;;;;;;;5.38;88.33;101267.09;4994046;28;20503;-47
2022/04/25 03:37:00;;;;;;;6.67;5.97;;;;;;;5.39;88.53;101272.25;4993395;28;20458;-48
2022/04/25 03:39:29;;;;;;;13.23;7.03;;;;;;;5.40;88.42;101270.44;4993803;28;20474;-48
2022/04/25 03:41:58;;;;;;;6.30;5.70;;;;;;;5.41;88.97;101270.28;4993158;28;20481;-45
2022/04/25 03:44:26;;;;;;;6.30;5.47;;;;;;;5.42;89.30;101271.94;4994078;28;20441;-51
2022/04/25 03:46:54;;;;;;;6.13;4.70;;;;;;;5.43;89.89;101267.50;4993669;28;20493;-51
2022/04/25 03:49:22;;;;;;;5.27;4.93;;;;;;;5.43;89.87;101276.25;4993684;28;20472;-46
2022/04/25 03:51:50;;;;;;;8.10;6.10;;;;;;;5.49;89.86;101272.19;4993050;28;20470;-48
2022/04/25 03:57:09;;;;;;;7.13;6.20;;;;;;;5.51;91.46;101276.34;4993807;28;20440;-52
2022/04/25 03:57:12;;;;;;;6.60;6.13;;;;;;;5.55;92.39;101287.44;4993684;28;20461;-47
2022/04/25 03:59:39;;;;;;;7.03;6.53;;;;;;;5.55;93.47;101292.75;4993647;28;20858;-46
2022/04/25 04:02:07;;;;;;;10.63;6.67;;;;;;;5.50;93.26;101295.00;4992793;28;20500;-50
2022/04/25 04:04:35;;;;;;;10.20;6.80;;;;;;;5.48;93.54;101296.97;4993497;28;20484;-50
2022/04/25 04:07:03;;;;;;;7.07;6.57;;;;;;;5.43;93.64;101293.94;4993225;28;20454;-49
2022/04/25 04:09:46;;;;;;;7.77;7.17;;;;;;;5.38;93.87;101307.59;4993352;28;20929;-45
2022/04/25 04:12:15;;;;;;;7.27;6.67;;;;;;;5.34;93.16;101302.78;4992749;28;20477;-50
2022/04/25 04:14:43;;;;;;;8.13;7.03;;;;;;;5.30;93.87;101310.16;4993379;28;20434;-48
2022/04/25 04:17:11;;;;;;;7.03;6.53;;;;;;;5.31;94.19;101301.25;4992937;28;20847;-49
2022/04/25 04:19:41;;;;;;;6.80;6.30;;;;;;;5.31;94.98;101311.00;4993287;28;20788;-49
2022/04/25 04:22:09;;;;;;;7.03;5.93;;;;;;;5.33;95.38;101309.03;4992416;28;20979;-47
2022/04/25 04:24:36;;;;;;;6.00;5.60;;;;;;;5.32;95.87;101310.00;4993301;28;20524;-49
2022/04/25 04:27:06;;;;;;;7.77;6.10;;;;;;;5.39;96.05;101301.34;4992986;28;20480;-47
2022/04/25 04:29:36;;;;;;;6.80;6.20;;;;;;;5.59;95.95;101309.97;4992985;28;20886;-46
2022/04/25 04:32:06;;;;;;;7.03;6.43;;;;;;;5.94;96.82;101307.31;4992036;28;20458;-51
2022/04/25 04:34:35;;;;;;;7.03;6.60;;;;;;;6.40;96.02;101305.34;4993192;28;20799;-49
2022/04/25 04:37:03;;;;;;;6.90;6.43;;;;;;;6.75;94.33;101304.41;4992997;28;20897;-46
2022/04/25 04:39:31;;;;;;;6.50;6.00;;;;;;;7.16;92.22;101306.25;4992947;28;20434;-47
2022/04/25 04:41:59;;;;;;;6.83;6.10;;;;;;;7.45;89.16;101314.63;4992065;28;20480;-46
2022/04/25 04:44:26;;;;;;;6.80;6.13;;;;;;;7.53;87.01;101309.31;4992956;28;20434;-51
2022/04/25 04:46:56;;;;;;;6.20;5.80;;;;;;;7.80;85.29;101313.50;4992637;28;20557;-50
2022/04/25 04:49:23;;;;;;;5.60;5.30;;;;;;;8.00;82.76;101314.88;4992004;28;20434;-48
2022/04/25 04:51:51;;;;;;;6.20;5.80;;;;;;;8.36;80.35;101319.84;4992104;28;20469;-48
2022/04/25 04:54:19;;;;;;;5.50;5.03;;;;;;;8.83;76.90;101318.91;4992783;28;20430;-49
2022/04/25 04:56:46;;;;;;;6.67;6.30;;;;;;;9.54;73.79;101317.91;4992814;28;20457;-49
2022/04/25 04:59:14;;;;;;;5.80;5.50;;;;;;;10.08;70.17;101323.19;4992480;28;20438;-47
2022/04/25 05:01:42;;;;;;;5.37;4.97;;;;;;;10.76;68.35;101317.72;4991811;28;20474;-47
2022/04/25 05:04:12;;;;;;;5.30;4.90;;;;;;;11.27;66.36;101324.78;4992746;28;20430;-51
2022/04/25 05:06:40;;;;;;;5.20;4.80;;;;;;;11.68;62.53;101325.88;4992500;28;20450;-51
2022/04/25 05:09:09;;;;;;;5.37;5.00;;;;;;;11.65;60.18;101320.91;4992536;28;20947;-49
2022/04/25 05:11:36;;;;;;;6.23;5.73;;;;;;;11.71;59.41;101322.00;4991750;28;20549;-50
2022/04/25 05:14:09;;;;;;;5.10;4.90;;;;;;;11.95;58.65;101326.16;4992439;28;20784;-48
2022/04/25 05:16:36;;;;;;;5.90;5.60;;;;;;;12.15;59.93;101329.84;4992314;28;20473;-47
2022/04/25 05:19:04;;;;;;;5.67;5.27;;;;;;;12.13;60.13;101329.22;4992487;28;20442;-52
2022/04/25 05:21:33;;;;;;;5.97;5.60;;;;;;;12.58;58.42;101334.09;4991814;28;20493;-51
2022/04/25 05:24:01;;;;;;;5.80;5.50;;;;;;;12.88;56.09;101331.19;4992513;28;20532;-49
2022/04/25 05:26:28;;;;;;;5.77;5.43;;;;;;;13.23;57.33;101339.03;4992594;28;20454;-52
2022/04/25 05:28:57;;;;;;;4.97;4.67;;;;;;;13.43;54.18;101347.16;4992549;28;20791;-48
2022/04/25 05:31:25;;;;;;;5.50;5.03;;;;;;;13.61;53.70;101351.97;4991715;28;21018;-47
2022/04/25 05:33:53;;;;;;;5.50;5.13;;;;;;;13.97;53.52;101348.97;4992403;28;20430;-50
2022/04/25 05:36:20;;;;;;;7.13;6.50;;;;;;;14.06;53.18;101350.41;4992214;28;20454;-51
2022/04/25 05:38:49;;;;;;;5.53;5.23;;;;;;;14.05;52.42;101346.91;4992480;28;20442;-53
2022/04/25 05:41:18;;;;;;;6.20;5.87;;;;;;;14.14;51.91;101351.03;4991683;28;20472;-51
2022/04/25 05:43:46;;;;;;;6.17;5.87;;;;;;;14.11;52.17;101351.44;4992471;28;20436;-51
2022/04/25 05:46:14;;;;;;;6.03;5.43;;;;;;;14.42;52.46;101350.88;4989257;28;20459;-50
2022/04/25 05:54:15;;;;;;;5.83;5.47;;;;;;;14.50;51.17;101353.34;4992072;28;20426;-48
2022/04/25 05:56:42;;;;;;;6.67;6.10;;;;;;;14.45;50.21;101355.00;4992257;28;20468;-49
2022/04/25 05:59:10;;;;;;;5.97;5.67;;;;;;;14.68;49.87;101350.03;4992088;28;20436;-48
2022/04/25 06:01:38;;;;;;;5.73;5.40;;;;;;;14.72;48.43;101348.59;4993715;28;20808;-47
2022/04/25 06:04:06;;;;;;;5.80;5.50;;;;;;;15.01;49.87;101347.28;4995839;28;20436;-50
2022/04/25 06:06:33;;;;;;;5.93;5.50;;;;;;;15.11;48.58;101340.44;4995804;28;20457;-46
2022/04/25 06:09:02;;;;;;;5.40;5.10;;;;;;;15.55;48.77;101334.28;4995793;28;20512;-47
2022/04/25 06:11:32;;;;;;;5.20;5.00;;;;;;;15.66;48.48;101347.03;4994955;28;20465;-52
2022/04/25 06:14:02;;;;;;;4.70;4.50;;;;;;;15.62;45.96;101345.81;4995468;28;20859;-49
2022/04/25 06:16:29;;;;;;;4.80;4.60;;;;;;;16.05;43.48;101340.59;4995422;28;20465;-50
2022/04/25 06:18:57;;;;;;;4.93;4.63;;;;;;;15.95;44.75;101341.06;4995375;28;20440;-54
2022/04/25 06:21:24;;;;;;;5.00;4.80;;;;;;;16.63;42.88;101341.19;4994688;28;20469;-48
2022/04/25 06:23:52;;;;;;;4.63;4.43;;;;;;;16.33;44.73;101348.25;4995383;28;20444;-47
2022/04/25 06:26:20;;;;;;;5.33;4.60;;;;;;;16.39;44.56;101342.00;4995213;28;20462;-49
2022/04/25 06:28:48;;;;;;;4.97;4.67;;;;;;;16.38;44.84;101349.25;4995289;28;20429;-54
2022/04/25 06:31:16;;;;;;;4.93;4.73;;;;;;;16.33;44.97;101354.47;4994491;28;20464;-46
2022/04/25 06:33:44;;;;;;;4.80;4.50;;;;;;;16.19;43.75;101354.81;4995277;28;20447;-53
2022/04/25 06:36:11;;;;;;;5.37;5.07;;;;;;;16.26;43.70;101355.56;4994982;28;20457;-54
2022/04/25 06:38:39;;;;;;;5.10;4.80;;;;;;;16.67;42.38;101346.94;4994960;28;20943;-52
2022/04/25 06:41:07;;;;;;;6.73;6.20;;;;;;;16.58;41.67;101351.78;5024111;23;20468;-48
2022/04/25 06:43:36;;;;;;;4.53;4.30;;;;;;;16.48;42.37;101346.06;5014808;28;20435;-48
2022/04/25 06:46:05;;;;;;;4.50;4.30;;;;;;;16.84;41.96;101351.56;5013008;28;20447;-47
2022/04/25 06:48:33;;;;;;;4.50;4.20;;;;;;;16.79;42.50;101348.69;5008623;28;20475;-47
2022/04/25 06:51:01;;;;;;;4.73;4.33;;;;;;;16.43;43.15;101352.09;5013905;28;20495;-48
2022/04/25 06:53:29;;;;;;;4.90;4.63;;;;;;;16.58;41.46;101354.47;5014494;28;20439;-50
2022/04/25 06:55:56;;;;;;;4.30;4.10;;;;;;;16.55;41.52;101354.91;5014444;28;20443;-48
2022/04/25 06:58:26;;;;;;;4.73;4.53;;;;;;;16.19;41.74;101357.50;5014483;28;20813;-46
2022/04/25 07:00:54;;;;;;;4.80;4.40;;;;;;;16.29;42.88;101355.94;5012602;28;20513;-46
2022/04/25 07:03:31;;;;;;;5.60;5.40;;;;;;;16.45;43.06;101362.66;5014547;28;20432;-46
2022/04/25 07:05:59;;;;;;;6.03;5.40;;;;;;;16.65;42.72;101357.13;5014354;28;20432;-46
2022/04/25 07:08:27;;;;;;;5.50;5.10;;;;;;;16.88;43.35;101358.13;5014200;28;20433;-46
2022/04/25 07:10:55;;;;;;;5.00;4.80;;;;;;;16.56;42.38;101360.09;5013640;28;20961;-47
2022/04/25 07:13:22;;;;;;;4.80;4.40;;;;;;;16.04;44.03;101360.47;5013138;28;20443;-46
2022/04/25 07:15:50;;;;;;;4.87;4.57;;;;;;;16.08;43.05;101360.84;5014074;28;20931;-46
2022/04/25 07:18:18;;;;;;;5.30;5.00;;;;;;;15.78;44.75;101360.63;5014158;28;20432;-47
2022/04/25 07:20:47;;;;;;;6.33;5.83;;;;;;;15.83;44.21;101366.22;5013218;28;20453;-48
2022/04/25 07:28:52;;;;;;;6.03;5.63;;;;;;;15.13;45.10;101365.22;5014251;28;20443;-47
2022/04/25 07:31:20;;;;;;;5.13;4.93;;;;;;;14.82;44.85;101373.97;5013088;28;20475;-46
2022/04/25 07:33:48;;;;;;;5.97;5.70;;;;;;;14.76;47.38;101377.47;5014219;28;20460;-47
2022/04/25 07:36:21;;;;;;;6.67;6.27;;;;;;;14.40;47.83;101371.72;5013938;28;20440;-45
2022/04/25 07:38:49;;;;;;;6.13;5.73;;;;;;;13.94;47.84;101378.88;5014041;28;20472;-46
2022/04/25 07:41:17;;;;;;;6.10;5.70;;;;;;;14.00;47.43;101381.56;5013178;28;20467;-46
2022/04/25 07:43:45;;;;;;;6.60;6.10;;;;;;;13.89;48.14;101373.28;5013765;28;20901;-45
2022/04/25 07:46:15;;;;;;;6.20;5.90;;;;;;;13.69;49.47;101379.41;5013713;28;20437;-46
2022/04/25 07:48:43;;;;;;;5.93;5.63;;;;;;;13.62;48.51;101377.75;5013729;28;20433;-50
2022/04/25 07:51:10;;;;;;;6.07;5.77;;;;;;;13.41;49.31;101378.66;5012594;28;20465;-47
2022/04/25 07:53:39;;;;;;;6.40;5.93;;;;;;;12.86;51.91;101386.78;5013460;28;20436;-48
2022/04/25 07:56:07;;;;;;;6.00;5.60;;;;;;;12.88;51.25;101387.41;5013222;28;20433;-51
2022/04/25 07:58:35;;;;;;;6.83;6.27;;;;;;;12.71;51.73;101390.41;5013437;28;20429;-46
2022/04/25 08:01:04;;;;;;;5.97;5.70;;;;;;;12.60;51.29;101384.75;5012726;28;20465;-51
2022/04/25 08:03:35;;;;;;;5.50;5.30;;;;;;;12.77;50.67;101388.78;5013154;28;20513;-48
2022/04/25 08:06:04;;;;;;;6.07;5.77;;;;;;;12.78;50.75;101393.13;5013451;28;20437;-46
2022/04/25 08:08:32;;;;;;;6.00;5.70;;;;;;;12.85;52.88;101385.13;5013137;28;20437;-47
2022/04/25 08:11:01;;;;;;;6.93;6.53;;;;;;;13.27;50.86;101390.34;5012918;28;20819;-46
2022/04/25 08:19:00;;;;;;;6.63;6.20;;;;;;;13.66;49.75;101393.22;5013125;28;20790;-47
2022/04/25 08:21:27;;;;;;;6.83;6.40;;;;;;;13.41;50.95;101391.28;5012336;28;20473;-46
2022/04/25 08:23:55;;;;;;;8.90;6.00;;;;;;;13.11;50.38;101399.53;5012639;28;20465;-45
2022/04/25 08:26:24;;;;;;;5.60;5.20;;;;;;;13.16;50.18;101388.25;5012901;28;20441;-47
2022/04/25 08:28:54;;;;;;;4.60;4.30;;;;;;;13.13;50.07;101399.34;5012673;28;20433;-46
2022/04/25 08:31:31;;;;;;;6.03;5.40;;;;;;;13.32;50.40;101389.78;5011965;28;20962;-46
2022/04/25 08:34:00;;;;;;;5.90;5.60;;;;;;;13.17;50.36;101395.28;5012706;28;20437;-50
2022/04/25 08:36:27;;;;;;;6.23;5.77;;;;;;;12.88;50.54;101390.91;5012724;28;20436;-49
2022/04/25 08:38:55;;;;;;;5.37;5.10;;;;;;;12.96;50.51;101398.78;5012524;28;20437;-49
2022/04/25 08:41:28;;;;;;;5.60;5.40;;;;;;;12.76;52.01;101408.53;5011577;28;20834;-45
2022/04/25 08:43:57;;;;;;;6.13;5.73;;;;;;;12.76;50.91;101406.69;5012331;28;20508;-48
2022/04/25 08:46:27;;;;;;;5.80;5.40;;;;;;;12.77;51.31;101407.53;5004588;28;20449;-47
2022/04/25 08:48:56;;;;;;;4.47;4.27;;;;;;;12.83;50.30;101406.75;5004383;28;20439;-49
2022/04/25 08:51:26;;;;;;;6.00;5.67;;;;;;;12.86;51.01;101411.72;5011686;28;20473;-46
2022/04/25 08:53:54;;;;;;;5.43;5.03;;;;;;;12.87;48.65;101415.22;5012359;28;20439;-48
2022/04/25 08:56:25;;;;;;;5.60;5.20;;;;;;;12.77;50.84;101410.19;5012187;28;20447;-46
2022/04/25 08:58:56;;;;;;;5.50;5.00;;;;;;;12.90;49.59;101420.19;5012500;28;20429;-48
2022/04/25 09:01:25;;;;;;;5.30;5.00;;;;;;;12.83;49.59;101427.31;5011726;28;20508;-50
2022/04/25 09:03:53;;;;;;;5.40;5.00;;;;;;;12.78;49.07;101417.22;5012242;28;20476;-48
2022/04/25 09:06:21;;;;;;;5.20;4.90;;;;;;;13.01;48.57;101431.19;5012432;28;20433;-49
2022/04/25 09:08:49;;;;;;;5.47;5.17;;;;;;;12.97;49.94;101431.75;5012504;28;20437;-45
2022/04/25 09:14:04;;;;;;;4.93;4.63;;;;;;;13.11;48.62;101444.25;5012528;28;20435;-49
2022/04/25 09:16:32;;;;;;;5.90;5.40;;;;;;;13.24;48.39;101428.25;5012055;28;20441;-51
2022/04/25 09:19:00;;;;;;;5.10;4.80;;;;;;;13.14;49.09;101431.28;5012343;28;20469;-47
2022/04/25 09:21:27;;;;;;;5.67;5.37;;;;;;;13.28;49.41;101434.88;5011266;28;20473;-47
2022/04/25 09:23:55;;;;;;;5.13;4.93;;;;;;;13.32;48.22;101421.94;5012130;28;20484;-47
2022/04/25 09:26:27;;;;;;;6.00;5.60;;;;;;;13.28;48.11;101426.84;5012103;28;20441;-48
2022/04/25 09:28:56;;;;;;;5.50;5.10;;;;;;;13.29;48.55;101431.16;5012167;28;20440;-48
2022/04/25 09:31:26;;;;;;;5.03;4.83;;;;;;;13.39;47.85;101428.13;5011326;28;20501;-46
2022/04/25 09:33:54;;;;;;;5.50;5.30;;;;;;;13.28;47.19;101433.03;5011920;28;20827;-46
2022/04/25 09:36:22;;;;;;;5.63;5.10;;;;;;;13.28;48.32;101429.53;5013953;28;20935;-46
2022/04/25 09:38:50;;;;;;;5.70;5.27;;;;;;;13.12;48.07;101437.84;5015733;28;20437;-47
2022/04/25 09:41:17;;;;;;;5.10;4.90;;;;;;;13.25;48.02;101446.00;5015026;28;20475;-48
2022/04/25 09:43:47;;;;;;;5.73;5.33;;;;;;;13.24;48.27;101439.78;5015577;28;21025;-45
2022/04/25 09:46:16;;;;;;;6.07;4.97;;;;;;;13.34;47.88;101439.44;5007798;28;20433;-49
2022/04/25 09:49:04;;;;;;;5.93;5.47;;;;;;;13.39;48.08;101438.84;5007259;28;20487;-49
2022/04/25 09:51:32;;;;;;;5.87;5.43;;;;;;;13.58;47.65;101438.97;5015104;28;20465;-47
2022/04/25 09:54:01;;;;;;;5.40;5.00;;;;;;;13.70;47.10;101439.22;5015359;28;20441;-46
2022/04/25 09:56:30;;;;;;;5.03;4.73;;;;;;;13.56;47.34;101441.00;5015596;28;20444;-45
2022/04/25 09:59:00;;;;;;;6.07;5.20;;;;;;;13.77;47.28;101437.38;5015322;28;20441;-49
2022/04/25 10:01:29;;;;;;;5.17;4.80;;;;;;;13.66;47.75;101435.25;5014709;28;20468;-46
2022/04/25 10:03:57;;;;;;;4.80;4.50;;;;;;;14.02;46.99;101437.66;5015396;28;20477;-47
2022/04/25 10:06:31;;;;;;;6.43;6.03;;;;;;;13.91;46.70;101438.25;5015591;28;20519;-47
2022/04/25 10:09:02;;;;;;;6.00;5.60;;;;;;;13.98;45.97;101442.59;5015593;28;20433;-47
2022/04/25 10:11:34;;;;;;;5.97;5.60;;;;;;;13.72;47.01;101456.75;5014594;28;20816;-47
2022/04/25 10:14:02;;;;;;;7.33;6.73;;;;;;;13.81;46.47;101455.53;5015388;28;20425;-45
2022/04/25 10:16:31;;;;;;;6.90;6.27;;;;;;;13.66;45.55;101449.50;5015322;28;20535;-50
2022/04/25 10:18:59;;;;;;;5.63;5.43;;;;;;;13.73;45.91;101449.53;5015166;28;20475;-50
2022/04/25 10:21:30;;;;;;;5.33;5.13;;;;;;;13.81;46.92;101450.19;5014222;28;20453;-48
2022/04/25 10:23:58;;;;;;;6.90;6.50;;;;;;;14.01;46.29;101454.81;5014823;28;20483;-45
2022/04/25 10:26:26;;;;;;;5.43;5.10;;;;;;;13.94;44.35;101454.78;5015240;28;20459;-48
2022/04/25 10:28:57;;;;;;;5.50;5.20;;;;;;;14.14;45.19;101457.50;5015095;28;20433;-47
2022/04/25 10:31:27;;;;;;;7.13;6.63;;;;;;;13.96;45.72;101446.50;5014343;28;20473;-47
2022/04/25 10:33:58;;;;;;;5.10;4.80;;;;;;;14.11;44.67;101452.53;5014968;28;20797;-46
2022/04/25 10:36:53;;;;;;;5.93;5.60;;;;;;;13.94;44.46;101456.63;5014770;28;20463;-45
2022/04/25 10:39:23;;;;;;;8.03;7.47;;;;;;;14.05;44.65;101451.50;5014779;28;21135;-46
2022/04/25 10:44:53;;;;;;;7.07;6.53;;;;;;;14.19;41.86;101450.50;5014462;28;20500;-47
2022/04/25 10:47:23;;;;;;;4.30;4.10;;;;;;;14.29;42.41;101461.69;4994239;28;20448;-49
2022/04/25 10:50:02;;;;;;;4.20;4.00;;;;;;;14.28;42.57;101451.97;5010638;28;20970;-47
2022/04/25 10:52:56;;;;;;;5.40;5.00;;;;;;;14.32;41.91;101455.06;5013862;28;20472;-46
2022/04/25 10:55:34;;;;;;;4.03;3.87;;;;;;;14.25;40.97;101452.38;5014439;28;20428;-46
2022/04/25 10:58:17;;;;;;;4.33;4.13;;;;;;;14.45;39.43;101457.81;5014458;28;20425;-46
2022/04/25 11:00:50;;;;;;;4.90;4.50;;;;;;;14.54;40.20;101450.41;5013630;28;20459;-47
2022/04/25 11:03:19;;;;;;;4.57;4.40;;;;;;;14.56;41.04;101457.19;5014174;28;20931;-46
2022/04/25 11:05:48;;;;;;;5.60;5.30;;;;;;;14.50;42.08;101458.03;5014022;28;20433;-49
2022/04/25 11:08:36;;;;;;;5.30;5.00;;;;;;;14.26;42.20;101459.41;5014151;28;20444;-48
2022/04/25 11:11:16;;;;;;;5.00;4.80;;;;;;;14.20;42.41;101464.75;5013342;28;20975;-48
2022/04/25 11:14:23;;;;;;;5.60;5.40;;;;;;;14.41;41.82;101456.56;5013974;28;20435;-45
2022/04/25 11:17:11;;;;;;;4.97;4.77;;;;;;;14.44;42.15;101458.84;5014303;28;20448;-49
2022/04/25 11:19:51;;;;;;;4.73;4.53;;;;;;;14.58;42.57;101454.28;5014030;28;20440;-45
2022/04/25 11:22:47;;;;;;;5.57;4.07;;;;;;;14.51;42.54;101448.13;5013345;28;20993;-47
2022/04/25 11:25:42;;;;;;;4.47;4.27;;;;;;;14.66;41.24;101457.63;5013994;28;20487;-52
2022/04/25 11:28:13;;;;;;;4.87;4.47;;;;;;;14.64;41.62;101451.63;5013887;28;20429;-48
2022/04/25 11:30:42;;;;;;;5.00;4.70;;;;;;;14.78;40.23;101465.91;5012887;28;20476;-51
2022/04/25 11:33:12;;;;;;;4.77;4.50;;;;;;;14.70;40.33;101461.53;5014069;28;20437;-47
2022/04/25 11:35:43;;;;;;;5.33;5.03;;;;;;;14.79;41.40;101451.41;5013854;28;20436;-47
2022/04/25 11:38:11;;;;;;;5.50;5.20;;;;;;;14.80;41.06;101458.44;5013834;28;20468;-47
2022/04/25 11:40:40;;;;;;;5.00;4.60;;;;;;;14.75;40.92;101456.41;5012701;28;20433;-47
2022/04/25 11:43:07;;;;;;;5.00;4.80;;;;;;;14.94;41.42;101454.72;5013738;28;20425;-50
2022/04/25 11:45:37;;;;;;;5.10;4.80;;;;;;;14.92;42.84;101454.13;5008342;28;20484;-48
2022/04/25 11:48:12;;;;;;;5.10;4.80;;;;;;;14.87;42.53;101464.66;5003578;28;20876;-48
2022/04/25 11:50:50;;;;;;;5.23;4.83;;;;;;;14.94;42.11;101466.28;5012915;28;20458;-50
2022/04/25 11:53:31;;;;;;;4.73;4.50;;;;;;;14.60;42.67;101469.19;5013338;28;20425;-46
2022/04/25 11:56:01;;;;;;;5.33;5.00;;;;;;;14.69;43.18;101469.81;5013380;28;20859;-48
2022/04/25 11:58:30;;;;;;;4.60;4.40;;;;;;;14.80;42.00;101466.50;5013084;28;20428;-47
2022/04/25 12:00:59;;;;;;;5.70;5.40;;;;;;;14.95;42.54;101473.31;5012864;28;20461;-46
2022/04/25 12:03:27;;;;;;;6.37;6.03;;;;;;;14.81;43.96;101463.59;5013362;28;20433;-47
2022/04/25 12:06:08;;;;;;;5.37;5.07;;;;;;;15.04;42.58;101468.56;5012986;28;20488;-47